sensor_id;sensor_type;location;lat;lon;timestamp;temperature;humidity
67196;DHT22;54122;53.538;49.366;2022-10-15T00:00:04;6.70;95.00
67196;DHT22;54122;53.538;49.366;2022-10-15T00:02:36;6.70;95.20
67196;DHT22;54122;53.538;49.366;2022-10-15T00:05:07;6.70;95.30
67196;DHT22;54122;53.538;49.366;2022-10-15T00:07:39;6.70;95.10
67196;DHT22;54122;53.538;49.366;2022-10-15T00:10:11;6.70;95.00
67196;DHT22;54122;53.538;49.366;2022-10-15T00:12:42;6.70;94.80
67196;DHT22;54122;53.538;49.366;2022-10-15T00:15:14;6.70;94.70
67196;DHT22;54122;53.538;49.366;2022-10-15T00:17:46;6.70;94.60
67196;DHT22;54122;53.538;49.366;2022-10-15T00:20:17;6.70;94.60
67196;DHT22;54122;53.538;49.366;2022-10-15T00:22:48;6.70;94.50
67196;DHT22;54122;53.538;49.366;2022-10-15T00:25:20;6.70;94.40
67196;DHT22;54122;53.538;49.366;2022-10-15T00:27:51;6.70;94.30
67196;DHT22;54122;53.538;49.366;2022-10-15T00:30:22;6.60;94.20
67196;DHT22;54122;53.538;49.366;2022-10-15T00:32:54;6.60;94.20
67196;DHT22;54122;53.538;49.366;2022-10-15T00:35:25;6.60;94.10
67196;DHT22;54122;53.538;49.366;2022-10-15T00:37:56;6.60;94.00
67196;DHT22;54122;53.538;49.366;2022-10-15T00:40:28;6.50;94.10
67196;DHT22;54122;53.538;49.366;2022-10-15T00:42:59;6.50;94.20
67196;DHT22;54122;53.538;49.366;2022-10-15T00:45:31;6.50;94.20
67196;DHT22;54122;53.538;49.366;2022-10-15T00:48:03;6.50;94.30
67196;DHT22;54122;53.538;49.366;2022-10-15T00:50:34;6.50;94.20
67196;DHT22;54122;53.538;49.366;2022-10-15T00:53:07;6.50;94.30
67196;DHT22;54122;53.538;49.366;2022-10-15T00:55:40;6.40;94.30
67196;DHT22;54122;53.538;49.366;2022-10-15T00:58:13;6.40;94.30
67196;DHT22;54122;53.538;49.366;2022-10-15T01:00:45;6.40;94.30
67196;DHT22;54122;53.538;49.366;2022-10-15T01:03:16;6.40;94.30
67196;DHT22;54122;53.538;49.366;2022-10-15T01:05:48;6.40;94.40
67196;DHT22;54122;53.538;49.366;2022-10-15T01:08:20;6.40;94.40
67196;DHT22;54122;53.538;49.366;2022-10-15T01:10:58;6.40;94.40
67196;DHT22;54122;53.538;49.366;2022-10-15T01:16:07;6.40;94.30
67196;DHT22;54122;53.538;49.366;2022-10-15T01:18:43;6.40;94.20
67196;DHT22;54122;53.538;49.366;2022-10-15T01:21:21;6.40;94.20
67196;DHT22;54122;53.538;49.366;2022-10-15T01:31:59;6.30;93.80
67196;DHT22;54122;53.538;49.366;2022-10-15T01:37:17;6.30;93.80
67196;DHT22;54122;53.538;49.366;2022-10-15T01:39:58;6.40;93.80
67196;DHT22;54122;53.538;49.366;2022-10-15T01:42:34;6.40;93.50
67196;DHT22;54122;53.538;49.366;2022-10-15T01:45:08;6.50;93.50
67196;DHT22;54122;53.538;49.366;2022-10-15T01:47:47;6.50;93.40
67196;DHT22;54122;53.538;49.366;2022-10-15T01:50:19;6.50;93.00
67196;DHT22;54122;53.538;49.366;2022-10-15T01:52:53;6.50;93.00
67196;DHT22;54122;53.538;49.366;2022-10-15T01:55:25;6.60;92.80
67196;DHT22;54122;53.538;49.366;2022-10-15T01:57:57;6.60;92.60
67196;DHT22;54122;53.538;49.366;2022-10-15T02:00:30;6.60;92.50
67196;DHT22;54122;53.538;49.366;2022-10-15T02:03:01;6.50;92.40
67196;DHT22;54122;53.538;49.366;2022-10-15T02:05:36;6.50;92.50
67196;DHT22;54122;53.538;49.366;2022-10-15T02:13:27;6.30;92.80
67196;DHT22;54122;53.538;49.366;2022-10-15T02:16:09;6.30;92.80
67196;DHT22;54122;53.538;49.366;2022-10-15T02:18:49;6.30;92.80
67196;DHT22;54122;53.538;49.366;2022-10-15T02:21:24;6.20;92.50
67196;DHT22;54122;53.538;49.366;2022-10-15T02:24:04;6.20;92.60
67196;DHT22;54122;53.538;49.366;2022-10-15T02:26:36;6.10;92.60
67196;DHT22;54122;53.538;49.366;2022-10-15T02:29:10;6.10;92.70
67196;DHT22;54122;53.538;49.366;2022-10-15T02:31:43;6.00;92.70
67196;DHT22;54122;53.538;49.366;2022-10-15T02:34:16;5.90;92.80
67196;DHT22;54122;53.538;49.366;2022-10-15T02:36:48;5.90;93.00
67196;DHT22;54122;53.538;49.366;2022-10-15T02:39:21;5.90;93.00
67196;DHT22;54122;53.538;49.366;2022-10-15T02:41:54;5.90;92.80
67196;DHT22;54122;53.538;49.366;2022-10-15T02:44:26;5.90;92.70
67196;DHT22;54122;53.538;49.366;2022-10-15T02:46:58;5.80;92.70
67196;DHT22;54122;53.538;49.366;2022-10-15T02:49:30;5.80;92.70
67196;DHT22;54122;53.538;49.366;2022-10-15T02:52:01;5.80;93.20
67196;DHT22;54122;53.538;49.366;2022-10-15T02:54:33;5.80;92.70
67196;DHT22;54122;53.538;49.366;2022-10-15T02:57:04;5.70;92.70
67196;DHT22;54122;53.538;49.366;2022-10-15T02:59:35;5.70;92.70
67196;DHT22;54122;53.538;49.366;2022-10-15T03:02:07;5.70;92.70
67196;DHT22;54122;53.538;49.366;2022-10-15T03:04:38;5.70;92.60
67196;DHT22;54122;53.538;49.366;2022-10-15T03:07:09;5.60;92.70
67196;DHT22;54122;53.538;49.366;2022-10-15T03:09:41;5.60;92.60
67196;DHT22;54122;53.538;49.366;2022-10-15T03:12:12;5.50;92.60
67196;DHT22;54122;53.538;49.366;2022-10-15T03:14:43;5.50;92.50
67196;DHT22;54122;53.538;49.366;2022-10-15T03:17:15;5.50;92.40
67196;DHT22;54122;53.538;49.366;2022-10-15T03:19:46;5.40;92.40
67196;DHT22;54122;53.538;49.366;2022-10-15T03:22:18;5.40;92.40
67196;DHT22;54122;53.538;49.366;2022-10-15T03:24:49;5.30;92.30
67196;DHT22;54122;53.538;49.366;2022-10-15T03:27:21;5.30;92.30
67196;DHT22;54122;53.538;49.366;2022-10-15T03:29:52;5.30;92.20
67196;DHT22;54122;53.538;49.366;2022-10-15T03:32:23;5.30;92.40
67196;DHT22;54122;53.538;49.366;2022-10-15T03:34:55;5.30;92.30
67196;DHT22;54122;53.538;49.366;2022-10-15T03:37:26;5.30;92.20
67196;DHT22;54122;53.538;49.366;2022-10-15T03:39:57;5.30;92.20
67196;DHT22;54122;53.538;49.366;2022-10-15T03:42:29;5.30;92.10
67196;DHT22;54122;53.538;49.366;2022-10-15T03:45:00;5.30;92.00
67196;DHT22;54122;53.538;49.366;2022-10-15T03:47:31;5.30;91.90
67196;DHT22;54122;53.538;49.366;2022-10-15T03:50:03;5.30;91.70
67196;DHT22;54122;53.538;49.366;2022-10-15T03:52:35;5.40;91.80
67196;DHT22;54122;53.538;49.366;2022-10-15T03:55:06;5.40;91.60
67196;DHT22;54122;53.538;49.366;2022-10-15T03:57:38;5.50;91.20
67196;DHT22;54122;53.538;49.366;2022-10-15T04:00:11;5.50;91.00
67196;DHT22;54122;53.538;49.366;2022-10-15T04:02:42;5.60;91.00
67196;DHT22;54122;53.538;49.366;2022-10-15T04:05:13;5.70;90.60
67196;DHT22;54122;53.538;49.366;2022-10-15T04:07:45;5.70;90.40
67196;DHT22;54122;53.538;49.366;2022-10-15T04:10:16;5.70;90.20
67196;DHT22;54122;53.538;49.366;2022-10-15T04:12:47;5.70;89.40
67196;DHT22;54122;53.538;49.366;2022-10-15T04:15:19;5.70;89.40
67196;DHT22;54122;53.538;49.366;2022-10-15T04:17:52;5.70;89.70
67196;DHT22;54122;53.538;49.366;2022-10-15T04:20:24;5.70;89.40
67196;DHT22;54122;53.538;49.366;2022-10-15T04:22:56;5.70;88.90
67196;DHT22;54122;53.538;49.366;2022-10-15T04:25:30;5.70;89.20
67196;DHT22;54122;53.538;49.366;2022-10-15T04:28:01;5.70;88.70
67196;DHT22;54122;53.538;49.366;2022-10-15T04:30:33;5.80;88.50
67196;DHT22;54122;53.538;49.366;2022-10-15T04:33:04;5.80;88.70
67196;DHT22;54122;53.538;49.366;2022-10-15T04:35:36;5.80;89.00
67196;DHT22;54122;53.538;49.366;2022-10-15T04:38:08;5.80;88.60
67196;DHT22;54122;53.538;49.366;2022-10-15T04:40:39;5.90;88.40
67196;DHT22;54122;53.538;49.366;2022-10-15T04:43:11;5.90;88.10
67196;DHT22;54122;53.538;49.366;2022-10-15T04:45:42;5.90;87.10
67196;DHT22;54122;53.538;49.366;2022-10-15T04:48:14;6.00;87.40
67196;DHT22;54122;53.538;49.366;2022-10-15T04:50:45;6.00;87.00
67196;DHT22;54122;53.538;49.366;2022-10-15T04:53:16;6.10;86.40
67196;DHT22;54122;53.538;49.366;2022-10-15T04:55:48;6.20;85.90
67196;DHT22;54122;53.538;49.366;2022-10-15T04:58:19;6.40;85.70
67196;DHT22;54122;53.538;49.366;2022-10-15T05:00:50;6.60;86.00
67196;DHT22;54122;53.538;49.366;2022-10-15T05:03:22;7.00;84.20
67196;DHT22;54122;53.538;49.366;2022-10-15T05:05:53;7.60;85.80
67196;DHT22;54122;53.538;49.366;2022-10-15T05:08:24;9.40;84.90
67196;DHT22;54122;53.538;49.366;2022-10-15T05:11:06;11.30;78.40
67196;DHT22;54122;53.538;49.366;2022-10-15T05:13:37;12.60;72.60
67196;DHT22;54122;53.538;49.366;2022-10-15T05:16:10;13.50;67.90
67196;DHT22;54122;53.538;49.366;2022-10-15T05:18:42;14.40;64.90
67196;DHT22;54122;53.538;49.366;2022-10-15T05:21:17;15.00;62.70
67196;DHT22;54122;53.538;49.366;2022-10-15T05:23:49;15.20;60.20
67196;DHT22;54122;53.538;49.366;2022-10-15T05:26:21;15.50;60.00
67196;DHT22;54122;53.538;49.366;2022-10-15T05:28:54;15.60;58.20
67196;DHT22;54122;53.538;49.366;2022-10-15T05:31:27;15.00;57.00
67196;DHT22;54122;53.538;49.366;2022-10-15T05:33:58;14.70;58.50
67196;DHT22;54122;53.538;49.366;2022-10-15T05:36:35;15.00;57.30
67196;DHT22;54122;53.538;49.366;2022-10-15T05:39:07;15.30;56.50
67196;DHT22;54122;53.538;49.366;2022-10-15T05:41:40;15.40;54.70
67196;DHT22;54122;53.538;49.366;2022-10-15T05:44:11;15.60;54.50
67196;DHT22;54122;53.538;49.366;2022-10-15T05:46:43;15.90;53.90
67196;DHT22;54122;53.538;49.366;2022-10-15T05:49:14;16.20;51.30
67196;DHT22;54122;53.538;49.366;2022-10-15T05:51:45;16.40;52.20
67196;DHT22;54122;53.538;49.366;2022-10-15T05:54:17;16.80;52.00
67196;DHT22;54122;53.538;49.366;2022-10-15T05:56:48;17.20;50.30
67196;DHT22;54122;53.538;49.366;2022-10-15T05:59:19;17.60;48.00
67196;DHT22;54122;53.538;49.366;2022-10-15T06:01:51;17.90;46.10
67196;DHT22;54122;53.538;49.366;2022-10-15T06:04:22;17.90;45.30
67196;DHT22;54122;53.538;49.366;2022-10-15T06:06:53;17.30;44.50
67196;DHT22;54122;53.538;49.366;2022-10-15T06:09:25;16.40;46.50
67196;DHT22;54122;53.538;49.366;2022-10-15T06:11:57;15.50;48.30
67196;DHT22;54122;53.538;49.366;2022-10-15T06:14:29;14.90;49.70
67196;DHT22;54122;53.538;49.366;2022-10-15T06:17:02;14.40;49.90
67196;DHT22;54122;53.538;49.366;2022-10-15T06:19:34;14.20;51.40
67196;DHT22;54122;53.538;49.366;2022-10-15T06:22:05;14.70;52.50
67196;DHT22;54122;53.538;49.366;2022-10-15T06:24:37;15.50;49.90
67196;DHT22;54122;53.538;49.366;2022-10-15T06:27:10;16.10;48.70
67196;DHT22;54122;53.538;49.366;2022-10-15T06:29:41;16.60;47.10
67196;DHT22;54122;53.538;49.366;2022-10-15T06:32:13;17.20;46.10
67196;DHT22;54122;53.538;49.366;2022-10-15T06:34:44;17.90;43.80
67196;DHT22;54122;53.538;49.366;2022-10-15T06:37:15;18.30;42.40
67196;DHT22;54122;53.538;49.366;2022-10-15T06:39:46;18.80;40.90
67196;DHT22;54122;53.538;49.366;2022-10-15T06:42:18;18.70;39.80
67196;DHT22;54122;53.538;49.366;2022-10-15T06:44:49;18.40;39.50
67196;DHT22;54122;53.538;49.366;2022-10-15T06:47:21;18.00;39.70
67196;DHT22;54122;53.538;49.366;2022-10-15T06:49:52;17.30;40.20
67196;DHT22;54122;53.538;49.366;2022-10-15T06:52:28;16.60;41.80
67196;DHT22;54122;53.538;49.366;2022-10-15T06:54:59;15.90;42.70
67196;DHT22;54122;53.538;49.366;2022-10-15T06:57:31;15.30;44.60
67196;DHT22;54122;53.538;49.366;2022-10-15T07:00:02;14.70;45.60
67196;DHT22;54122;53.538;49.366;2022-10-15T07:02:34;14.20;47.10
67196;DHT22;54122;53.538;49.366;2022-10-15T07:05:06;13.60;48.10
67196;DHT22;54122;53.538;49.366;2022-10-15T07:07:38;13.00;49.70
67196;DHT22;54122;53.538;49.366;2022-10-15T07:10:09;12.40;50.90
67196;DHT22;54122;53.538;49.366;2022-10-15T07:12:41;12.00;52.00
67196;DHT22;54122;53.538;49.366;2022-10-15T07:15:12;11.70;53.10
67196;DHT22;54122;53.538;49.366;2022-10-15T07:17:47;11.50;54.30
67196;DHT22;54122;53.538;49.366;2022-10-15T07:20:19;11.30;55.00
67196;DHT22;54122;53.538;49.366;2022-10-15T07:22:54;11.20;55.80
67196;DHT22;54122;53.538;49.366;2022-10-15T07:25:26;11.40;56.60
67196;DHT22;54122;53.538;49.366;2022-10-15T07:27:58;11.60;55.30
67196;DHT22;54122;53.538;49.366;2022-10-15T07:30:29;11.60;55.30
67196;DHT22;54122;53.538;49.366;2022-10-15T07:33:00;11.50;55.00
67196;DHT22;54122;53.538;49.366;2022-10-15T07:35:32;11.40;55.50
67196;DHT22;54122;53.538;49.366;2022-10-15T07:38:04;11.50;56.00
67196;DHT22;54122;53.538;49.366;2022-10-15T07:40:35;11.70;56.20
67196;DHT22;54122;53.538;49.366;2022-10-15T07:43:06;12.10;55.20
67196;DHT22;54122;53.538;49.366;2022-10-15T07:45:38;12.20;55.00
67196;DHT22;54122;53.538;49.366;2022-10-15T07:48:09;12.40;54.40
67196;DHT22;54122;53.538;49.366;2022-10-15T07:50:41;12.90;53.30
67196;DHT22;54122;53.538;49.366;2022-10-15T07:53:12;13.50;51.40
67196;DHT22;54122;53.538;49.366;2022-10-15T07:55:43;14.10;49.90
67196;DHT22;54122;53.538;49.366;2022-10-15T07:58:15;14.80;48.10
67196;DHT22;54122;53.538;49.366;2022-10-15T08:00:46;15.50;47.50
67196;DHT22;54122;53.538;49.366;2022-10-15T08:03:18;16.50;45.10
67196;DHT22;54122;53.538;49.366;2022-10-15T08:05:49;16.50;42.50
67196;DHT22;54122;53.538;49.366;2022-10-15T08:08:23;15.70;43.70
67196;DHT22;54122;53.538;49.366;2022-10-15T08:10:54;15.80;45.70
67196;DHT22;54122;53.538;49.366;2022-10-15T08:13:26;16.70;44.00
67196;DHT22;54122;53.538;49.366;2022-10-15T08:15:57;16.70;42.20
67196;DHT22;54122;53.538;49.366;2022-10-15T08:18:29;16.00;42.50
67196;DHT22;54122;53.538;49.366;2022-10-15T08:21:00;15.20;44.40
67196;DHT22;54122;53.538;49.366;2022-10-15T08:23:32;14.50;46.90
67196;DHT22;54122;53.538;49.366;2022-10-15T08:26:03;14.20;48.40
67196;DHT22;54122;53.538;49.366;2022-10-15T08:28:35;13.90;49.10
67196;DHT22;54122;53.538;49.366;2022-10-15T08:31:06;13.60;50.00
67196;DHT22;54122;53.538;49.366;2022-10-15T08:33:38;13.40;50.90
67196;DHT22;54122;53.538;49.366;2022-10-15T08:36:09;13.20;51.50
67196;DHT22;54122;53.538;49.366;2022-10-15T08:38:40;13.30;51.90
67196;DHT22;54122;53.538;49.366;2022-10-15T08:41:58;13.20;52.00
67196;DHT22;54122;53.538;49.366;2022-10-15T08:44:03;12.90;52.50
67196;DHT22;54122;53.538;49.366;2022-10-15T08:46:43;12.40;53.20
67196;DHT22;54122;53.538;49.366;2022-10-15T08:49:27;12.20;54.00
67196;DHT22;54122;53.538;49.366;2022-10-15T08:52:24;12.00;54.40
67196;DHT22;54122;53.538;49.366;2022-10-15T08:54:55;12.00;54.80
67196;DHT22;54122;53.538;49.366;2022-10-15T08:57:35;11.80;54.90
67196;DHT22;54122;53.538;49.366;2022-10-15T09:00:13;11.80;54.90
67196;DHT22;54122;53.538;49.366;2022-10-15T09:08:41;11.70;54.70
67196;DHT22;54122;53.538;49.366;2022-10-15T09:11:18;11.50;54.30
67196;DHT22;54122;53.538;49.366;2022-10-15T09:13:51;11.30;54.80
67196;DHT22;54122;53.538;49.366;2022-10-15T09:16:26;11.20;55.10
67196;DHT22;54122;53.538;49.366;2022-10-15T09:18:59;11.20;55.00
67196;DHT22;54122;53.538;49.366;2022-10-15T09:21:33;11.10;55.50
67196;DHT22;54122;53.538;49.366;2022-10-15T09:24:08;11.10;56.20
67196;DHT22;54122;53.538;49.366;2022-10-15T09:26:57;11.20;56.30
67196;DHT22;54122;53.538;49.366;2022-10-15T09:29:43;11.30;55.70
67196;DHT22;54122;53.538;49.366;2022-10-15T09:32:29;11.40;54.90
67196;DHT22;54122;53.538;49.366;2022-10-15T09:37:49;11.80;54.50
67196;DHT22;54122;53.538;49.366;2022-10-15T09:40:28;11.90;53.40
67196;DHT22;54122;53.538;49.366;2022-10-15T09:43:02;12.10;53.80
67196;DHT22;54122;53.538;49.366;2022-10-15T09:45:34;12.20;53.40
67196;DHT22;54122;53.538;49.366;2022-10-15T09:48:14;12.30;53.30
67196;DHT22;54122;53.538;49.366;2022-10-15T09:56:08;12.00;54.20
67196;DHT22;54122;53.538;49.366;2022-10-15T09:58:53;11.90;54.70
67196;DHT22;54122;53.538;49.366;2022-10-15T10:01:26;11.80;54.60
67196;DHT22;54122;53.538;49.366;2022-10-15T10:06:50;11.70;55.10
67196;DHT22;54122;53.538;49.366;2022-10-15T10:09:24;11.60;55.30
67196;DHT22;54122;53.538;49.366;2022-10-15T10:11:58;11.40;55.70
67196;DHT22;54122;53.538;49.366;2022-10-15T10:14:31;11.10;56.30
67196;DHT22;54122;53.538;49.366;2022-10-15T10:17:04;10.90;56.80
67196;DHT22;54122;53.538;49.366;2022-10-15T10:19:35;10.80;57.10
67196;DHT22;54122;53.538;49.366;2022-10-15T10:22:16;10.80;57.60
67196;DHT22;54122;53.538;49.366;2022-10-15T10:24:48;10.80;57.40
67196;DHT22;54122;53.538;49.366;2022-10-15T10:27:23;10.80;57.60
67196;DHT22;54122;53.538;49.366;2022-10-15T10:30:00;10.70;57.50
67196;DHT22;54122;53.538;49.366;2022-10-15T10:32:32;10.60;58.30
67196;DHT22;54122;53.538;49.366;2022-10-15T10:35:04;10.50;58.40
67196;DHT22;54122;53.538;49.366;2022-10-15T10:37:40;10.50;58.90
67196;DHT22;54122;53.538;49.366;2022-10-15T10:40:20;10.50;58.60
67196;DHT22;54122;53.538;49.366;2022-10-15T10:46:04;10.60;57.70
67196;DHT22;54122;53.538;49.366;2022-10-15T10:48:37;10.70;57.50
67196;DHT22;54122;53.538;49.366;2022-10-15T10:51:22;10.90;57.80
67196;DHT22;54122;53.538;49.366;2022-10-15T10:56:33;11.00;56.50
67196;DHT22;54122;53.538;49.366;2022-10-15T11:01:40;10.80;56.70
67196;DHT22;54122;53.538;49.366;2022-10-15T11:04:11;10.70;57.30
67196;DHT22;54122;53.538;49.366;2022-10-15T11:06:47;10.60;58.00
67196;DHT22;54122;53.538;49.366;2022-10-15T11:14:47;10.60;58.40
67196;DHT22;54122;53.538;49.366;2022-10-15T11:17:35;10.60;58.60
67196;DHT22;54122;53.538;49.366;2022-10-15T11:20:22;10.50;58.80
67196;DHT22;54122;53.538;49.366;2022-10-15T11:23:05;10.40;58.70
67196;DHT22;54122;53.538;49.366;2022-10-15T11:25:57;10.40;59.10
67196;DHT22;54122;53.538;49.366;2022-10-15T11:31:14;10.30;59.60
67196;DHT22;54122;53.538;49.366;2022-10-15T11:39:38;10.10;60.20
67196;DHT22;54122;53.538;49.366;2022-10-15T11:41:50;10.10;60.30
67196;DHT22;54122;53.538;49.366;2022-10-15T11:47:01;9.90;60.80
67196;DHT22;54122;53.538;49.366;2022-10-15T11:52:21;9.70;60.80
67196;DHT22;54122;53.538;49.366;2022-10-15T11:57:35;9.70;61.40
67196;DHT22;54122;53.538;49.366;2022-10-15T12:02:45;9.50;61.40
67196;DHT22;54122;53.538;49.366;2022-10-15T12:05:17;9.50;61.80
67196;DHT22;54122;53.538;49.366;2022-10-15T12:07:50;9.50;61.80
67196;DHT22;54122;53.538;49.366;2022-10-15T12:10:31;9.50;62.00
67196;DHT22;54122;53.538;49.366;2022-10-15T12:13:14;9.40;61.90
67196;DHT22;54122;53.538;49.366;2022-10-15T12:15:54;9.40;62.10
67196;DHT22;54122;53.538;49.366;2022-10-15T12:18:47;9.40;62.40
67196;DHT22;54122;53.538;49.366;2022-10-15T12:24:00;9.30;62.50
67196;DHT22;54122;53.538;49.366;2022-10-15T12:26:33;9.30;62.70
67196;DHT22;54122;53.538;49.366;2022-10-15T12:29:05;9.20;62.80
67196;DHT22;54122;53.538;49.366;2022-10-15T12:31:49;9.30;63.00
67196;DHT22;54122;53.538;49.366;2022-10-15T12:34:29;9.30;63.00
67196;DHT22;54122;53.538;49.366;2022-10-15T12:37:02;9.30;63.00
67196;DHT22;54122;53.538;49.366;2022-10-15T12:39:34;9.30;63.00
67196;DHT22;54122;53.538;49.366;2022-10-15T12:42:21;9.30;63.20
67196;DHT22;54122;53.538;49.366;2022-10-15T12:44:57;9.30;63.60
67196;DHT22;54122;53.538;49.366;2022-10-15T12:47:45;9.30;63.60
67196;DHT22;54122;53.538;49.366;2022-10-15T12:50:27;9.30;64.10
67196;DHT22;54122;53.538;49.366;2022-10-15T12:53:05;9.30;64.20
67196;DHT22;54122;53.538;49.366;2022-10-15T12:55:37;9.20;64.40
67196;DHT22;54122;53.538;49.366;2022-10-15T13:11:30;9.00;65.70
67196;DHT22;54122;53.538;49.366;2022-10-15T13:16:53;8.90;66.10
67196;DHT22;54122;53.538;49.366;2022-10-15T13:19:26;8.80;66.30
67196;DHT22;54122;53.538;49.366;2022-10-15T13:21:59;8.80;66.50
67196;DHT22;54122;53.538;49.366;2022-10-15T13:24:41;8.80;66.90
67196;DHT22;54122;53.538;49.366;2022-10-15T13:27:21;8.80;67.00
67196;DHT22;54122;53.538;49.366;2022-10-15T13:30:26;8.80;67.00
67196;DHT22;54122;53.538;49.366;2022-10-15T13:32:53;8.80;67.00
67196;DHT22;54122;53.538;49.366;2022-10-15T13:35:27;8.70;67.00
67196;DHT22;54122;53.538;49.366;2022-10-15T13:37:59;8.70;67.30
67196;DHT22;54122;53.538;49.366;2022-10-15T13:40:31;8.70;67.50
67196;DHT22;54122;53.538;49.366;2022-10-15T13:43:04;8.70;67.70
67196;DHT22;54122;53.538;49.366;2022-10-15T13:45:46;8.70;67.70
67196;DHT22;54122;53.538;49.366;2022-10-15T13:48:21;8.60;68.80
67196;DHT22;54122;53.538;49.366;2022-10-15T13:50:53;8.70;67.90
67196;DHT22;54122;53.538;49.366;2022-10-15T13:53:36;8.60;68.00
67196;DHT22;54122;53.538;49.366;2022-10-15T13:58:49;8.60;68.20
67196;DHT22;54122;53.538;49.366;2022-10-15T14:01:22;8.60;68.40
67196;DHT22;54122;53.538;49.366;2022-10-15T14:03:58;8.50;68.50
67196;DHT22;54122;53.538;49.366;2022-10-15T14:06:34;8.50;68.60
67196;DHT22;54122;53.538;49.366;2022-10-15T14:09:19;8.60;68.50
67196;DHT22;54122;53.538;49.366;2022-10-15T14:11:54;8.50;68.60
67196;DHT22;54122;53.538;49.366;2022-10-15T14:14:26;8.50;68.90
67196;DHT22;54122;53.538;49.366;2022-10-15T14:16:59;8.50;69.10
67196;DHT22;54122;53.538;49.366;2022-10-15T14:19:31;8.50;69.20
67196;DHT22;54122;53.538;49.366;2022-10-15T14:22:03;8.50;69.10
67196;DHT22;54122;53.538;49.366;2022-10-15T14:24:38;8.50;69.10
67196;DHT22;54122;53.538;49.366;2022-10-15T14:27:14;8.50;69.30
67196;DHT22;54122;53.538;49.366;2022-10-15T14:29:47;8.50;69.50
67196;DHT22;54122;53.538;49.366;2022-10-15T14:32:42;8.50;69.60
67196;DHT22;54122;53.538;49.366;2022-10-15T14:35:21;8.50;69.70
67196;DHT22;54122;53.538;49.366;2022-10-15T14:38:00;8.50;69.60
67196;DHT22;54122;53.538;49.366;2022-10-15T14:40:32;8.50;69.70
67196;DHT22;54122;53.538;49.366;2022-10-15T14:43:16;8.50;69.90
67196;DHT22;54122;53.538;49.366;2022-10-15T14:48:23;8.40;69.80
67196;DHT22;54122;53.538;49.366;2022-10-15T14:50:58;8.40;69.90
67196;DHT22;54122;53.538;49.366;2022-10-15T14:53:32;8.40;70.20
67196;DHT22;54122;53.538;49.366;2022-10-15T14:56:09;8.40;70.20
67196;DHT22;54122;53.538;49.366;2022-10-15T14:58:54;8.50;70.20
67196;DHT22;54122;53.538;49.366;2022-10-15T15:01:26;8.40;70.20
67196;DHT22;54122;53.538;49.366;2022-10-15T15:04:00;8.40;70.20
67196;DHT22;54122;53.538;49.366;2022-10-15T15:06:31;8.40;70.20
67196;DHT22;54122;53.538;49.366;2022-10-15T15:09:05;8.40;70.20
67196;DHT22;54122;53.538;49.366;2022-10-15T15:11:37;8.40;70.30
67196;DHT22;54122;53.538;49.366;2022-10-15T15:14:16;8.40;70.20
67196;DHT22;54122;53.538;49.366;2022-10-15T15:16:50;8.40;70.10
67196;DHT22;54122;53.538;49.366;2022-10-15T15:19:21;8.40;70.00
67196;DHT22;54122;53.538;49.366;2022-10-15T15:21:53;8.40;69.90
67196;DHT22;54122;53.538;49.366;2022-10-15T15:24:24;8.40;69.90
67196;DHT22;54122;53.538;49.366;2022-10-15T15:26:55;8.30;69.80
67196;DHT22;54122;53.538;49.366;2022-10-15T15:29:28;8.30;69.80
67196;DHT22;54122;53.538;49.366;2022-10-15T15:31:59;8.30;70.00
67196;DHT22;54122;53.538;49.366;2022-10-15T15:34:30;8.30;70.00
67196;DHT22;54122;53.538;49.366;2022-10-15T15:37:06;8.30;70.10
67196;DHT22;54122;53.538;49.366;2022-10-15T15:39:41;8.30;70.10
67196;DHT22;54122;53.538;49.366;2022-10-15T15:42:17;8.30;70.30
67196;DHT22;54122;53.538;49.366;2022-10-15T15:44:48;8.30;70.10
67196;DHT22;54122;53.538;49.366;2022-10-15T15:47:20;8.30;70.00
67196;DHT22;54122;53.538;49.366;2022-10-15T15:49:51;8.20;70.20
67196;DHT22;54122;53.538;49.366;2022-10-15T15:52:22;8.20;70.20
67196;DHT22;54122;53.538;49.366;2022-10-15T15:54:57;8.20;70.40
67196;DHT22;54122;53.538;49.366;2022-10-15T15:57:28;8.20;70.60
67196;DHT22;54122;53.538;49.366;2022-10-15T16:00:00;8.20;70.60
67196;DHT22;54122;53.538;49.366;2022-10-15T16:02:31;8.20;70.50
67196;DHT22;54122;53.538;49.366;2022-10-15T16:05:03;8.20;70.40
67196;DHT22;54122;53.538;49.366;2022-10-15T16:07:35;8.20;70.20
67196;DHT22;54122;53.538;49.366;2022-10-15T16:10:06;8.20;70.30
67196;DHT22;54122;53.538;49.366;2022-10-15T16:12:41;8.20;70.40
67196;DHT22;54122;53.538;49.366;2022-10-15T16:15:14;8.20;70.50
67196;DHT22;54122;53.538;49.366;2022-10-15T16:17:45;8.20;70.60
67196;DHT22;54122;53.538;49.366;2022-10-15T16:20:17;8.20;70.60
67196;DHT22;54122;53.538;49.366;2022-10-15T16:22:50;8.20;70.70
67196;DHT22;54122;53.538;49.366;2022-10-15T16:25:21;8.20;70.70
67196;DHT22;54122;53.538;49.366;2022-10-15T16:27:52;8.20;70.70
67196;DHT22;54122;53.538;49.366;2022-10-15T16:30:27;8.30;70.40
67196;DHT22;54122;53.538;49.366;2022-10-15T16:32:58;8.20;70.40
67196;DHT22;54122;53.538;49.366;2022-10-15T16:35:33;8.20;70.60
67196;DHT22;54122;53.538;49.366;2022-10-15T16:38:04;8.20;70.60
67196;DHT22;54122;53.538;49.366;2022-10-15T16:40:36;8.20;70.40
67196;DHT22;54122;53.538;49.366;2022-10-15T16:43:08;8.20;70.40
67196;DHT22;54122;53.538;49.366;2022-10-15T16:45:40;8.20;70.60
67196;DHT22;54122;53.538;49.366;2022-10-15T16:48:11;8.20;70.80
67196;DHT22;54122;53.538;49.366;2022-10-15T16:50:43;8.20;70.90
67196;DHT22;54122;53.538;49.366;2022-10-15T16:53:14;8.20;71.00
67196;DHT22;54122;53.538;49.366;2022-10-15T16:55:45;8.20;71.10
67196;DHT22;54122;53.538;49.366;2022-10-15T16:58:18;8.20;71.10
67196;DHT22;54122;53.538;49.366;2022-10-15T17:00:50;8.20;71.10
67196;DHT22;54122;53.538;49.366;2022-10-15T17:03:24;8.20;70.70
67196;DHT22;54122;53.538;49.366;2022-10-15T17:05:59;8.30;70.90
67196;DHT22;54122;53.538;49.366;2022-10-15T17:08:47;8.20;70.80
67196;DHT22;54122;53.538;49.366;2022-10-15T17:13:52;8.20;70.50
67196;DHT22;54122;53.538;49.366;2022-10-15T17:16:25;8.20;70.40
67196;DHT22;54122;53.538;49.366;2022-10-15T17:18:56;8.20;70.30
67196;DHT22;54122;53.538;49.366;2022-10-15T17:21:29;8.20;70.40
67196;DHT22;54122;53.538;49.366;2022-10-15T17:24:01;8.20;70.50
67196;DHT22;54122;53.538;49.366;2022-10-15T17:26:34;8.20;70.40
67196;DHT22;54122;53.538;49.366;2022-10-15T17:29:07;8.30;70.50
67196;DHT22;54122;53.538;49.366;2022-10-15T17:31:39;8.30;70.70
67196;DHT22;54122;53.538;49.366;2022-10-15T17:34:11;8.30;70.70
67196;DHT22;54122;53.538;49.366;2022-10-15T17:36:44;8.20;70.90
67196;DHT22;54122;53.538;49.366;2022-10-15T17:39:19;8.20;71.20